Time;durP1;ratioP1;P1;durP2;ratioP2;P2;SDS_P1;SDS_P2;PMS_P1;PMS_P2;Temp;Humidity;BMP_temperature;BMP_pressure;BME280_temperature;BME280_humidity;BME280_pressure;Samples;Min_cycle;Max_cycle;Signal;HPM_P1;HPM_P2
2022/04/05 00:00:28;;;;;;;;;;;;;;;13.91;61.26;100483.34;5054053;28;19924;-76
2022/04/05 00:02:54;;;;;;;;;;;;;;;14.16;60.68;100487.31;5054200;28;19996;-75
2022/04/05 00:05:20;;;;;;;;;;;;;;;14.19;60.39;100484.91;5053555;28;20379;-76
2022/04/05 00:07:46;;;;;;;;;;;;;;;13.84;61.13;100481.88;5052309;28;20265;-76
2022/04/05 00:10:11;;;;;;;;;;;;;;;14.41;59.20;100487.56;5054433;28;19959;-77
2022/04/05 00:12:36;;;;;;;;;;;;;;;14.33;59.68;100482.66;5054080;28;19944;-77
2022/04/05 00:15:02;;;;;;;;;;;;;;;14.74;57.95;100490.78;5053771;28;19955;-75
2022/04/05 00:17:27;;;;;;;;;;;;;;;14.64;58.59;100477.19;5053840;28;19924;-74
2022/04/05 00:19:53;;;;;;;;;;;;;;;14.04;60.46;100485.63;5053390;28;19920;-75
2022/04/05 00:22:18;;;;;;;;;;;;;;;14.08;60.09;100489.44;5054281;28;20269;-77
2022/04/05 00:24:43;;;;;;;;;;;;;;;14.08;60.38;100496.72;5053946;28;19920;-77
2022/04/05 00:27:08;;;;;;;;;;;;;;;13.97;60.90;100493.09;5053875;28;19916;-76
2022/04/05 00:29:34;;;;;;;;;;;;;;;14.05;60.34;100492.63;5054197;28;19999;-76
2022/04/05 00:31:59;;;;;;;;;;;;;;;14.51;59.03;100488.47;5052699;28;20003;-76
2022/04/05 00:34:25;;;;;;;;;;;;;;;14.62;58.39;100484.75;5054113;28;19917;-76
2022/04/05 00:36:53;;;;;;;;;;;;;;;14.27;59.76;100492.56;5053943;28;19917;-76
2022/04/05 00:39:18;;;;;;;;;;;;;;;14.60;57.99;100486.88;5051988;28;19919;-76
2022/04/05 00:41:44;;;;;;;;;;;;;;;14.30;59.05;100488.56;5053640;28;19996;-76
2022/04/05 00:44:09;;;;;;;;;;;;;;;14.83;57.30;100489.22;5053273;28;19924;-74
2022/04/05 00:46:34;;;;;;;;;;;;;;;14.91;57.34;100477.91;5053706;28;19913;-75
2022/04/05 00:49:01;;;;;;;;;;;;;;;14.74;57.58;100479.97;5053407;28;19920;-76
2022/04/05 00:51:27;;;;;;;;;;;;;;;14.22;59.44;100470.91;5051980;28;19939;-77
2022/04/05 00:53:53;;;;;;;;;;;;;;;14.47;58.65;100464.91;5053307;28;19913;-74
2022/04/05 00:56:20;;;;;;;;;;;;;;;14.05;60.14;100468.31;5053182;28;19917;-75
2022/04/05 00:58:50;;;;;;;;;;;;;;;13.87;60.68;100466.00;5052953;28;20016;-75
2022/04/05 01:01:18;;;;;;;;;;;;;;;14.06;59.95;100469.13;5053326;28;19958;-76
2022/04/05 01:03:50;;;;;;;;;;;;;;;14.13;59.12;100477.88;5051734;28;20022;-76
2022/04/05 01:06:31;;;;;;;;;;;;;;;14.68;57.79;100472.09;5052901;28;19916;-76
2022/04/05 01:08:57;;;;;;;;;;;;;;;13.74;60.89;100482.59;5052892;28;19966;-76
2022/04/05 01:11:23;;;;;;;;;;;;;;;14.30;59.17;100480.44;5053068;28;20279;-75
2022/04/05 01:13:48;;;;;;;;;;;;;;;15.09;56.99;100483.94;5052786;28;19970;-75
2022/04/05 01:16:14;;;;;;;;;;;;;;;14.59;58.00;100487.16;5053074;28;19999;-75
2022/04/05 01:18:39;;;;;;;;;;;;;;;14.43;58.41;100483.53;5051002;28;19916;-75
2022/04/05 01:21:05;;;;;;;;;;;;;;;15.02;56.62;100484.19;5052823;28;20067;-75
2022/04/05 01:23:30;;;;;;;;;;;;;;;14.82;57.62;100481.34;5052837;28;19927;-75
2022/04/05 01:25:56;;;;;;;;;;;;;;;15.38;55.34;100475.16;5051078;28;19915;-77
2022/04/05 01:28:22;;;;;;;;;;;;;;;15.14;56.39;100475.84;5053021;28;19948;-75
2022/04/05 01:30:47;;;;;;;;;;;;;;;15.43;55.25;100474.41;5051051;28;19920;-75
2022/04/05 01:33:13;;;;;;;;;;;;;;;14.73;57.23;100480.22;5051647;28;20264;-75
2022/04/05 01:35:39;;;;;;;;;;;;;;;14.93;56.64;100474.94;5052576;28;20319;-74
2022/04/05 01:38:06;;;;;;;;;;;;;;;14.63;58.12;100480.97;5052312;28;19925;-74
2022/04/05 01:40:31;;;;;;;;;;;;;;;14.94;56.83;100479.25;5053057;28;19947;-75
2022/04/05 01:42:56;;;;;;;;;;;;;;;13.73;60.04;100482.88;5052452;28;19917;-75
2022/04/05 01:45:22;;;;;;;;;;;;;;;13.33;62.46;100474.31;5052291;28;20394;-75
2022/04/05 01:47:47;;;;;;;;;;;;;;;14.42;58.92;100473.81;5052240;28;19920;-75
2022/04/05 01:50:12;;;;;;;;;;;;;;;14.15;59.38;100472.19;5052156;28;20262;-76
2022/04/05 01:52:38;;;;;;;;;;;;;;;13.64;61.09;100479.00;5052820;28;19921;-76
2022/04/05 01:55:05;;;;;;;;;;;;;;;13.05;62.97;100476.13;5052282;28;20387;-76
2022/04/05 01:57:31;;;;;;;;;;;;;;;13.33;62.09;100469.72;5051649;28;19920;-77
2022/04/05 01:59:56;;;;;;;;;;;;;;;13.23;63.25;100471.50;5050605;28;19912;-77
2022/04/05 02:02:21;;;;;;;;;;;;;;;13.62;61.62;100483.84;5052241;28;19991;-76
2022/04/05 02:04:46;;;;;;;;;;;;;;;13.65;61.63;100480.63;5051979;28;20360;-76
2022/04/05 02:07:16;;;;;;;;;;;;;;;13.41;61.90;100485.47;5052529;28;19908;-77
2022/04/05 02:09:42;;;;;;;;;;;;;;;13.51;61.83;100484.78;5050589;28;19921;-75
2022/04/05 02:12:09;;;;;;;;;;;;;;;13.39;62.31;100493.00;5051959;28;20339;-75
2022/04/05 02:14:35;;;;;;;;;;;;;;;14.39;59.17;100490.53;5051855;28;19931;-75
2022/04/05 02:17:00;;;;;;;;;;;;;;;14.31;59.38;100495.63;5051868;28;19917;-75
2022/04/05 02:19:25;;;;;;;;;;;;;;;14.85;57.56;100494.38;5050213;28;20449;-74
2022/04/05 02:21:50;;;;;;;;;;;;;;;14.55;58.75;100497.69;5051840;28;20045;-76
2022/04/05 02:24:16;;;;;;;;;;;;;;;14.60;58.09;100492.31;5084156;28;19917;-75
2022/04/05 02:26:41;;;;;;;;;;;;;;;14.59;58.24;100500.69;5051810;28;19917;-75
2022/04/05 02:29:06;;;;;;;;;;;;;;;13.73;60.38;100505.28;5050353;28;20368;-75
2022/04/05 02:31:32;;;;;;;;;;;;;;;14.17;59.37;100495.16;5052386;28;20477;-76
2022/04/05 02:33:58;;;;;;;;;;;;;;;14.03;60.27;100505.59;5051737;28;20015;-76
2022/04/05 02:36:23;;;;;;;;;;;;;;;13.80;60.93;100502.38;5051728;28;20000;-76
2022/04/05 02:38:48;;;;;;;;;;;;;;;14.25;59.95;100499.31;5050792;28;19972;-75
2022/04/05 02:41:13;;;;;;;;;;;;;;;14.00;60.44;100494.47;5051853;28;19916;-76
2022/04/05 02:43:39;;;;;;;;;;;;;;;13.88;60.84;100505.44;5054228;28;19908;-77
2022/04/05 02:46:05;;;;;;;;;;;;;;;13.33;62.50;100502.13;5055734;28;19928;-78
2022/04/05 02:48:30;;;;;;;;;;;;;;;14.41;59.17;100501.91;5055923;28;19939;-74
2022/04/05 02:50:56;;;;;;;;;;;;;;;13.85;60.91;100503.25;5055512;28;19921;-76
2022/04/05 02:53:21;;;;;;;;;;;;;;;13.66;61.09;100495.75;5055103;28;19977;-76
2022/04/05 02:55:46;;;;;;;;;;;;;;;13.90;60.54;100492.50;5055598;28;19921;-75
2022/04/05 02:58:12;;;;;;;;;;;;;;;14.49;59.02;100493.31;5055689;28;19966;-75
2022/04/05 03:00:40;;;;;;;;;;;;;;;13.78;61.54;100505.34;5087721;28;19917;-75
2022/04/05 03:03:06;;;;;;;;;;;;;;;13.84;60.96;100498.09;5055354;28;19912;-76
2022/04/05 03:05:31;;;;;;;;;;;;;;;14.04;60.45;100503.69;5054767;28;19920;-75
2022/04/05 03:07:56;;;;;;;;;;;;;;;13.39;62.42;100495.72;5054603;28;20280;-75
2022/04/05 03:10:22;;;;;;;;;;;;;;;14.33;59.38;100507.78;5055149;28;20502;-76
2022/04/05 03:12:47;;;;;;;;;;;;;;;14.11;59.91;100509.72;5053030;28;19917;-75
2022/04/05 03:15:12;;;;;;;;;;;;;;;13.89;60.53;100507.09;5054262;28;19924;-75
2022/04/05 03:17:42;;;;;;;;;;;;;;;14.11;59.79;100504.31;5054561;28;19917;-76
2022/04/05 03:20:07;;;;;;;;;;;;;;;14.01;59.38;100515.03;5054669;28;19917;-76
2022/04/05 03:22:32;;;;;;;;;;;;;;;13.98;60.00;100510.13;5054769;28;19999;-77
2022/04/05 03:24:58;;;;;;;;;;;;;;;13.75;61.32;100499.63;5054576;28;20300;-76
2022/04/05 03:27:23;;;;;;;;;;;;;;;14.38;59.17;100498.91;5054891;28;20062;-76
2022/04/05 03:29:49;;;;;;;;;;;;;;;14.24;59.30;100492.25;5054806;28;19924;-74
2022/04/05 03:32:14;;;;;;;;;;;;;;;13.83;60.87;100499.19;5054785;28;20011;-76
2022/04/05 03:34:39;;;;;;;;;;;;;;;14.19;59.30;100503.84;5055124;28;20276;-76
2022/04/05 03:37:05;;;;;;;;;;;;;;;13.49;61.52;100498.53;5046065;28;19913;-76
2022/04/05 03:39:30;;;;;;;;;;;;;;;14.36;59.21;100504.56;5034860;28;19925;-74
2022/04/05 03:41:57;;;;;;;;;;;;;;;14.71;58.40;100501.31;5036975;28;19968;-74
2022/04/05 03:44:22;;;;;;;;;;;;;;;14.78;57.82;100505.41;5054408;28;19917;-76
2022/04/05 03:46:48;;;;;;;;;;;;;;;14.76;58.07;100510.28;5052404;28;19935;-75
2022/04/05 03:49:13;;;;;;;;;;;;;;;14.56;58.62;100523.66;5054600;28;19992;-76
2022/04/05 03:51:38;;;;;;;;;;;;;;;14.04;59.97;100522.63;5054287;28;19932;-75
2022/04/05 03:54:03;;;;;;;;;;;;;;;14.40;58.56;100526.50;5052357;28;20404;-75
2022/04/05 03:56:29;;;;;;;;;;;;;;;14.69;57.77;100525.91;5053518;28;19955;-74
2022/04/05 03:58:54;;;;;;;;;;;;;;;14.65;57.95;100530.22;5054190;28;20323;-76
2022/04/05 04:01:19;;;;;;;;;;;;;;;14.03;59.68;100532.59;5052217;28;19986;-74
2022/04/05 04:03:44;;;;;;;;;;;;;;;14.60;57.92;100524.75;5052810;28;19936;-74
2022/04/05 04:06:10;;;;;;;;;;;;;;;14.66;58.21;100526.41;5053850;28;19948;-76
2022/04/05 04:08:35;;;;;;;;;;;;;;;14.79;57.30;100522.47;5052092;28;19991;-74
2022/04/05 04:11:02;;;;;;;;;;;;;;;14.94;57.23;100519.84;5054217;28;20388;-74
2022/04/05 04:13:27;;;;;;;;;;;;;;;14.77;57.68;100521.91;5054379;28;19986;-74
2022/04/05 04:15:53;;;;;;;;;;;;;;;14.95;57.21;100513.38;5053002;28;20502;-73
2022/04/05 04:18:18;;;;;;;;;;;;;;;14.72;57.89;100506.44;5053897;28;20379;-75
2022/04/05 04:20:43;;;;;;;;;;;;;;;14.37;57.84;100514.31;5051948;28;19917;-78
2022/04/05 04:23:09;;;;;;;;;;;;;;;15.16;56.44;100506.16;5052454;28;19917;-74
2022/04/05 04:25:37;;;;;;;;;;;;;;;14.53;58.42;100507.94;5054402;28;19920;-74
2022/04/05 04:28:02;;;;;;;;;;;;;;;14.92;57.15;100512.00;5054014;28;19923;-74
2022/04/05 04:30:28;;;;;;;;;;;;;;;15.09;56.75;100516.44;5053754;28;20323;-74
2022/04/05 04:32:54;;;;;;;;;;;;;;;14.26;59.09;100517.16;5053711;28;19913;-74
2022/04/05 04:35:20;;;;;;;;;;;;;;;14.50;58.31;100513.88;5040539;28;19921;-74
2022/04/05 04:37:45;;;;;;;;;;;;;;;13.72;60.93;100503.66;5033736;28;19999;-74
2022/04/05 04:40:11;;;;;;;;;;;;;;;14.08;60.25;100508.34;5034070;28;19909;-74
2022/04/05 04:42:36;;;;;;;;;;;;;;;13.35;62.64;100508.06;5033530;28;19921;-75
2022/04/05 04:45:02;;;;;;;;;;;;;;;13.69;61.87;100506.03;5033512;28;20419;-74
2022/04/05 04:47:27;;;;;;;;;;;;;;;13.93;60.10;100508.22;5051604;28;19924;-74
2022/04/05 04:49:52;;;;;;;;;;;;;;;14.70;58.05;100507.81;5053556;28;19909;-73
2022/04/05 04:52:18;;;;;;;;;;;;;;;14.61;58.24;100509.34;5053684;28;19909;-74
2022/04/05 04:54:43;;;;;;;;;;;;;;;14.54;59.09;100506.06;5053186;28;19924;-76
2022/04/05 04:57:08;;;;;;;;;;;;;;;14.15;59.53;100510.84;5053092;28;19935;-75
2022/04/05 04:59:33;;;;;;;;;;;;;;;13.93;60.56;100507.38;5053603;28;19912;-76
2022/04/05 05:01:59;;;;;;;;;;;;;;;14.08;60.01;100512.94;5085010;28;19917;-75
2022/04/05 05:04:24;;;;;;;;;;;;;;;14.64;58.20;100509.63;5053473;28;19912;-75
2022/04/05 05:06:51;;;;;;;;;;;;;;;14.37;58.71;100513.50;5051994;28;20019;-75
2022/04/05 05:09:16;;;;;;;;;;;;;;;14.68;58.07;100504.53;5052877;28;19928;-75
2022/04/05 05:11:42;;;;;;;;;;;;;;;14.25;59.24;100513.63;5052644;28;19920;-76
2022/04/05 05:14:07;;;;;;;;;;;;;;;14.71;58.19;100512.13;5052512;28;19920;-74
2022/04/05 05:16:33;;;;;;;;;;;;;;;15.18;56.31;100512.94;5053043;28;20376;-74
2022/04/05 05:18:59;;;;;;;;;;;;;;;14.77;57.39;100513.78;5052415;28;19995;-74
2022/04/05 05:21:24;;;;;;;;;;;;;;;15.28;56.17;100523.84;5050938;28;20016;-75
2022/04/05 05:23:50;;;;;;;;;;;;;;;14.92;56.79;100519.28;5052397;28;20528;-75
2022/04/05 05:26:15;;;;;;;;;;;;;;;15.72;54.68;100519.69;5052114;28;20300;-73
2022/04/05 05:28:41;;;;;;;;;;;;;;;15.25;56.13;100528.97;5051977;28;19924;-73
2022/04/05 05:31:06;;;;;;;;;;;;;;;15.35;56.08;100529.03;5077245;28;19916;-73
2022/04/05 05:33:31;;;;;;;;;;;;;;;15.19;56.63;100532.72;5052005;28;20360;-74
2022/04/05 05:35:57;;;;;;;;;;;;;;;15.47;55.36;100530.44;5052031;28;19955;-74
2022/04/05 05:38:22;;;;;;;;;;;;;;;14.89;57.00;100528.78;5052142;28;19917;-73
2022/04/05 05:40:47;;;;;;;;;;;;;;;15.48;55.65;100529.38;5052611;28;20292;-76
2022/04/05 05:43:12;;;;;;;;;;;;;;;14.84;57.12;100526.00;5053668;28;19935;-75
2022/04/05 05:45:38;;;;;;;;;;;;;;;14.21;59.71;100522.53;5052356;28;19916;-74
2022/04/05 05:48:04;;;;;;;;;;;;;;;14.54;58.94;100523.13;5052330;28;20287;-75
2022/04/05 05:50:29;;;;;;;;;;;;;;;14.40;59.23;100527.31;5052553;28;19923;-73
2022/04/05 05:52:56;;;;;;;;;;;;;;;14.49;58.95;100530.34;5052440;28;19909;-74
2022/04/05 05:55:21;;;;;;;;;;;;;;;14.37;59.23;100527.81;5051535;28;19920;-74
2022/04/05 05:57:47;;;;;;;;;;;;;;;14.50;58.75;100530.09;5050604;28;20238;-74
2022/04/05 06:00:17;;;;;;;;;;;;;;;14.80;58.43;100524.13;5051640;28;20364;-75
2022/04/05 06:02:43;;;;;;;;;;;;;;;14.96;57.98;100523.94;5049182;28;19939;-74
2022/04/05 06:05:08;;;;;;;;;;;;;;;14.31;59.53;100519.94;5051954;28;19917;-73
2022/04/05 06:07:34;;;;;;;;;;;;;;;13.99;60.42;100511.78;5052388;28;19913;-75
2022/04/05 06:10:04;;;;;;;;;;;;;;;14.70;58.64;100518.63;5049577;28;19927;-74
2022/04/05 06:12:29;;;;;;;;;;;;;;;14.82;58.16;100517.34;5049967;28;19955;-74
2022/04/05 06:14:54;;;;;;;;;;;;;;;15.25;56.80;100510.81;5051147;28;19972;-75
2022/04/05 06:17:20;;;;;;;;;;;;;;;15.33;56.72;100509.53;5050939;28;19921;-73
2022/04/05 06:19:46;;;;;;;;;;;;;;;15.12;56.46;100516.72;5051005;28;19971;-75
2022/04/05 06:22:11;;;;;;;;;;;;;;;15.09;57.34;100514.53;5051624;28;19944;-72
2022/04/05 06:24:37;;;;;;;;;;;;;;;14.54;59.11;100514.19;5051280;28;19913;-74
2022/04/05 06:27:02;;;;;;;;;;;;;;;14.88;58.22;100510.06;5051034;28;19916;-74
2022/04/05 06:29:27;;;;;;;;;;;;;;;15.16;57.27;100508.88;5050780;28;19927;-74
2022/04/05 06:31:52;;;;;;;;;;;;;;;14.53;59.12;100510.66;5050616;28;19913;-74
2022/04/05 06:34:18;;;;;;;;;;;;;;;14.71;58.58;100517.53;5051529;28;19960;-75
2022/04/05 06:36:43;;;;;;;;;;;;;;;14.80;58.49;100516.00;5050534;28;19917;-74
2022/04/05 06:39:08;;;;;;;;;;;;;;;15.13;57.55;100517.53;5051145;28;19924;-74
2022/04/05 06:41:33;;;;;;;;;;;;;;;14.58;59.34;100515.28;5047167;28;19916;-74
2022/04/05 06:43:59;;;;;;;;;;;;;;;14.87;58.57;100511.97;5048409;28;19912;-74
2022/04/05 06:46:24;;;;;;;;;;;;;;;15.22;57.86;100515.94;5049634;28;20482;-75
2022/04/05 06:48:49;;;;;;;;;;;;;;;15.61;56.28;100515.34;5044329;28;20376;-74
2022/04/05 06:51:15;;;;;;;;;;;;;;;15.05;58.41;100520.72;5047767;28;20385;-74
2022/04/05 06:53:40;;;;;;;;;;;;;;;14.97;58.68;100516.63;5047421;28;19916;-74
2022/04/05 06:56:08;;;;;;;;;;;;;;;14.80;58.36;100518.69;5048020;28;19939;-74
2022/04/05 06:58:33;;;;;;;;;;;;;;;15.54;57.10;100522.09;5046848;28;20039;-74
2022/04/05 07:00:58;;;;;;;;;;;;;;;15.23;57.57;100534.66;5043762;28;19999;-73
2022/04/05 07:03:23;;;;;;;;;;;;;;;15.24;57.79;100516.50;5047092;28;19963;-74
2022/04/05 07:05:49;;;;;;;;;;;;;;;14.60;59.67;100522.03;5049206;28;19917;-74
2022/04/05 07:08:14;;;;;;;;;;;;;;;15.51;56.90;100525.31;5049116;28;19939;-74
2022/04/05 07:10:39;;;;;;;;;;;;;;;15.18;57.33;100520.25;5049690;28;19984;-73
2022/04/05 07:13:06;;;;;;;;;;;;;;;14.53;59.50;100516.06;5046381;28;19913;-75
2022/04/05 07:15:31;;;;;;;;;;;;;;;14.91;58.64;100518.50;5048926;28;20309;-73
2022/04/05 07:17:57;;;;;;;;;;;;;;;15.64;57.22;100514.00;5048909;28;19988;-73
2022/04/05 07:20:22;;;;;;;;;;;;;;;16.40;54.93;100509.50;5046911;28;19939;-74
2022/04/05 07:22:48;;;;;;;;;;;;;;;16.05;55.51;100509.47;5045607;28;20554;-74
2022/04/05 07:25:14;;;;;;;;;;;;;;;16.49;54.61;100502.50;5047170;28;19912;-74
2022/04/05 07:27:39;;;;;;;;;;;;;;;15.08;58.22;100517.50;5047525;28;20422;-73
2022/04/05 07:30:05;;;;;;;;;;;;;;;15.29;58.09;100506.50;5046642;28;19999;-74
2022/04/05 07:32:34;;;;;;;;;;;;;;;15.72;55.93;100498.00;5049707;28;20453;-74
2022/04/05 07:34:59;;;;;;;;;;;;;;;15.37;56.84;100499.78;5051120;28;19916;-74
2022/04/05 07:37:25;;;;;;;;;;;;;;;15.74;56.67;100498.56;5050989;28;20438;-74
2022/04/05 07:39:50;;;;;;;;;;;;;;;15.55;57.47;100497.44;5050005;28;19921;-75
2022/04/05 07:42:15;;;;;;;;;;;;;;;15.71;57.32;100506.41;5049346;28;19921;-74
2022/04/05 07:44:40;;;;;;;;;;;;;;;15.69;57.37;100501.28;5049775;28;20011;-73
2022/04/05 07:47:06;;;;;;;;;;;;;;;15.71;57.02;100501.00;5049719;28;19939;-74
2022/04/05 07:49:31;;;;;;;;;;;;;;;14.79;59.57;100504.34;5051269;28;19962;-74
2022/04/05 07:51:57;;;;;;;;;;;;;;;14.84;59.61;100498.13;5049978;28;19921;-75
2022/04/05 07:54:22;;;;;;;;;;;;;;;15.50;57.75;100505.56;5049948;28;19921;-75
2022/04/05 07:56:47;;;;;;;;;;;;;;;15.39;57.72;100494.94;5049731;28;19923;-75
2022/04/05 07:59:12;;;;;;;;;;;;;;;14.67;60.27;100502.91;5049831;28;19917;-75
2022/04/05 08:01:38;;;;;;;;;;;;;;;15.29;58.25;100500.28;5051307;28;19916;-74
2022/04/05 08:04:03;;;;;;;;;;;;;;;16.05;56.53;100491.31;5049255;28;19920;-75
2022/04/05 08:06:29;;;;;;;;;;;;;;;15.77;57.52;100491.81;5049541;28;19924;-74
2022/04/05 08:08:54;;;;;;;;;;;;;;;15.10;58.66;100490.97;5050193;28;20311;-73
2022/04/05 08:11:20;;;;;;;;;;;;;;;15.25;58.80;100491.06;5052105;28;19920;-74
2022/04/05 08:13:45;;;;;;;;;;;;;;;15.69;57.72;100484.19;5053236;28;19935;-73
2022/04/05 08:16:10;;;;;;;;;;;;;;;15.60;58.31;100492.06;5052277;28;19960;-73
2022/04/05 08:18:35;;;;;;;;;;;;;;;15.44;58.48;100494.97;5050462;28;19924;-74
2022/04/05 08:21:01;;;;;;;;;;;;;;;15.20;59.12;100488.31;5052853;28;19916;-75
2022/04/05 08:23:26;;;;;;;;;;;;;;;15.14;59.62;100495.59;5052882;28;20254;-75
2022/04/05 08:25:51;;;;;;;;;;;;;;;15.53;58.71;100488.75;5052646;28;19992;-73
2022/04/05 08:28:17;;;;;;;;;;;;;;;15.28;59.27;100494.06;5053469;28;19977;-75
2022/04/05 08:30:42;;;;;;;;;;;;;;;15.47;58.95;100489.00;5053520;28;19961;-73
2022/04/05 08:33:07;;;;;;;;;;;;;;;15.35;59.48;100496.53;5052662;28;20261;-74
2022/04/05 08:35:33;;;;;;;;;;;;;;;15.39;58.68;100495.72;5052430;28;19967;-74
2022/04/05 08:37:58;;;;;;;;;;;;;;;14.60;61.81;100494.22;5052346;28;20635;-73
2022/04/05 08:40:25;;;;;;;;;;;;;;;14.94;60.90;100490.91;5052515;28;19958;-74
2022/04/05 08:42:51;;;;;;;;;;;;;;;14.33;63.10;100496.97;5052368;28;19921;-73
2022/04/05 08:45:18;;;;;;;;;;;;;;;15.03;61.71;100488.53;5049189;28;19927;-72
2022/04/05 08:47:49;;;;;;;;;;;;;;;16.10;58.54;100493.19;5052306;28;19913;-79
2022/04/05 08:50:15;;;;;;;;;;;;;;;15.23;61.09;100494.06;5053639;28;19939;-81
2022/04/05 08:52:41;;;;;;;;;;;;;;;15.14;61.74;100492.09;5053911;28;20419;-81
2022/04/05 08:55:07;;;;;;;;;;;;;;;15.22;61.86;100494.28;5053812;28;19925;-81
2022/04/05 08:57:32;;;;;;;;;;;;;;;14.54;64.15;100490.66;5053743;28;19940;-81
2022/04/05 08:59:57;;;;;;;;;;;;;;;15.43;61.64;100494.13;5052386;28;20361;-81
2022/04/05 09:02:23;;;;;;;;;;;;;;;15.66;61.18;100495.59;5053562;28;20361;-82
2022/04/05 09:04:48;;;;;;;;;;;;;;;15.64;60.59;100495.03;5052987;28;19924;-83
2022/04/05 09:07:18;;;;;;;;;;;;;;;16.21;59.06;100487.53;5052906;28;19909;-81
2022/04/05 09:09:43;;;;;;;;;;;;;;;15.90;59.57;100491.28;5052081;28;20035;-82
2022/04/05 09:12:15;;;;;;;;;;;;;;;15.78;60.20;100490.75;5053594;28;19925;-80
2022/04/05 09:14:43;;;;;;;;;;;;;;;15.51;61.43;100490.09;5054330;28;19963;-82
2022/04/05 09:17:10;;;;;;;;;;;;;;;15.94;60.65;100502.41;5054007;28;19913;-82
2022/04/05 09:19:42;;;;;;;;;;;;;;;16.48;58.90;100487.25;5054589;28;19920;-81
2022/04/05 09:22:07;;;;;;;;;;;;;;;15.88;60.48;100503.50;5053822;28;20494;-80
2022/04/05 09:24:35;;;;;;;;;;;;;;;15.50;61.27;100497.44;5053588;28;19916;-83
2022/04/05 09:27:00;;;;;;;;;;;;;;;16.25;59.99;100504.91;5053084;28;19935;-82
2022/04/05 09:29:38;;;;;;;;;;;;;;;15.89;61.11;100507.81;5085649;28;19917;-80
2022/04/05 09:32:04;;;;;;;;;;;;;;;15.62;61.41;100516.16;5053016;28;19917;-79
2022/04/05 09:34:29;;;;;;;;;;;;;;;15.15;63.18;100499.97;5054658;28;19943;-83
2022/04/05 09:36:54;;;;;;;;;;;;;;;15.39;61.49;100522.00;5053835;28;19917;-83
2022/04/05 09:39:21;;;;;;;;;;;;;;;15.37;61.40;100508.69;5053098;28;20476;-82
2022/04/05 09:41:58;;;;;;;;;;;;;;;15.94;60.85;100502.41;5052815;28;20376;-82
2022/04/05 09:44:24;;;;;;;;;;;;;;;14.60;63.44;100516.63;5052763;28;19913;-77
2022/04/05 09:46:52;;;;;;;;;;;;;;;14.38;65.17;100521.34;5050538;28;19912;-80
2022/04/05 09:49:29;;;;;;;;;;;;;;;14.96;63.27;100523.09;5052799;28;20422;-82
2022/04/05 09:51:54;;;;;;;;;;;;;;;15.18;63.64;100517.53;5050887;28;19920;-81
2022/04/05 09:54:27;;;;;;;;;;;;;;;15.45;62.38;100510.94;5052258;28;19970;-83
2022/04/05 09:56:59;;;;;;;;;;;;;;;15.30;62.52;100520.84;5053006;28;20007;-84
2022/04/05 09:59:24;;;;;;;;;;;;;;;15.61;61.98;100517.22;5051764;28;19923;-83
2022/04/05 10:01:51;;;;;;;;;;;;;;;15.83;61.64;100520.53;5053459;28;19913;-85
2022/04/05 10:04:17;;;;;;;;;;;;;;;15.64;61.88;100505.88;5052995;28;19920;-85
2022/04/05 10:06:46;;;;;;;;;;;;;;;15.80;61.11;100516.47;5052268;28;19960;-84
2022/04/05 10:09:13;;;;;;;;;;;;;;;15.63;62.36;100509.66;5052316;28;19924;-82
2022/04/05 10:11:39;;;;;;;;;;;;;;;15.59;61.39;100516.66;5046549;28;20063;-80
2022/04/05 10:14:05;;;;;;;;;;;;;;;15.24;62.65;100520.03;5051778;28;20391;-81
2022/04/05 10:16:31;;;;;;;;;;;;;;;15.65;62.18;100519.13;5050766;28;19924;-81
2022/04/05 10:18:58;;;;;;;;;;;;;;;14.91;64.74;100517.69;5051970;28;19917;-81
2022/04/05 10:21:25;;;;;;;;;;;;;;;15.93;60.89;100515.16;5052112;28;19917;-80
2022/04/05 10:23:52;;;;;;;;;;;;;;;15.82;60.79;100521.63;5050162;28;19928;-81
2022/04/05 10:26:20;;;;;;;;;;;;;;;16.29;60.19;100524.16;5050847;28;20249;-81
2022/04/05 10:28:46;;;;;;;;;;;;;;;15.50;61.91;100515.56;5051817;28;19912;-80
2022/04/05 10:31:31;;;;;;;;;;;;;;;16.02;61.05;100520.88;5053271;28;20364;-82
2022/04/05 10:34:04;;;;;;;;;;;;;;;16.03;61.04;100522.47;5051701;28;19971;-82
2022/04/05 10:36:29;;;;;;;;;;;;;;;15.70;61.77;100524.56;5050163;28;20403;-81
2022/04/05 10:39:15;;;;;;;;;;;;;;;15.99;60.03;100529.53;5052581;28;19917;-83
2022/04/05 10:41:40;;;;;;;;;;;;;;;16.25;60.35;100525.78;5053271;28;19997;-83
2022/04/05 10:44:19;;;;;;;;;;;;;;;15.37;62.42;100524.94;5084413;28;20043;-84
2022/04/05 10:46:55;;;;;;;;;;;;;;;14.71;64.22;100526.47;5050164;28;20388;-82
2022/04/05 10:49:40;;;;;;;;;;;;;;;16.01;60.69;100521.94;5050740;28;19952;-82
2022/04/05 10:52:15;;;;;;;;;;;;;;;15.48;62.48;100536.69;5046957;28;20016;-82
2022/04/05 10:54:43;;;;;;;;;;;;;;;15.56;62.78;100528.88;5047669;28;19932;-85
2022/04/05 10:57:30;;;;;;;;;;;;;;;15.73;62.16;100532.16;5048988;28;20582;-82
2022/04/05 10:59:55;;;;;;;;;;;;;;;15.15;64.51;100532.44;5049134;28;19916;-85
2022/04/05 11:02:30;;;;;;;;;;;;;;;15.03;64.59;100534.53;5048815;28;19916;-80
2022/04/05 11:05:19;;;;;;;;;;;;;;;15.11;64.91;100533.22;5050740;28;19908;-84
2022/04/05 11:07:53;;;;;;;;;;;;;;;15.05;65.33;100545.09;4990852;28;19910;-78
2022/04/05 11:10:19;;;;;;;;;;;;;;;14.73;65.82;100523.50;4990455;28;19953;-83
2022/04/05 11:12:44;;;;;;;;;;;;;;;15.14;65.18;100532.69;4992712;28;19922;-83
2022/04/05 11:15:10;;;;;;;;;;;;;;;15.24;64.74;100521.91;4975626;28;20480;-82
2022/04/05 11:17:36;;;;;;;;;;;;;;;15.93;62.46;100522.47;4991502;28;19968;-81
2022/04/05 11:20:03;;;;;;;;;;;;;;;15.59;63.73;100519.38;4990105;28;20425;-85
2022/04/05 11:22:34;;;;;;;;;;;;;;;16.07;62.25;100521.69;5007693;28;19921;-87
2022/04/05 11:25:13;;;;;;;;;;;;;;;15.61;64.08;100525.34;4990263;28;19956;-83
2022/04/05 11:27:42;;;;;;;;;;;;;;;16.05;62.82;100526.56;4991143;28;19925;-80
2022/04/05 11:30:37;;;;;;;;;;;;;;;16.06;62.94;100514.63;4992039;28;19956;-81
2022/04/05 11:33:21;;;;;;;;;;;;;;;16.42;61.06;100516.28;4987064;28;19949;-81
2022/04/05 11:35:47;;;;;;;;;;;;;;;16.98;60.62;100514.34;4989550;28;19926;-82
2022/04/05 11:38:18;;;;;;;;;;;;;;;16.73;60.03;100522.53;4989922;28;19937;-81
2022/04/05 11:40:45;;;;;;;;;;;;;;;16.97;59.55;100522.75;4990115;28;20408;-81
2022/04/05 11:43:19;;;;;;;;;;;;;;;16.34;60.34;100524.13;4989406;28;20437;-78
2022/04/05 11:45:47;;;;;;;;;;;;;;;16.69;60.10;100527.69;5029038;28;20004;-79
2022/04/05 11:48:16;;;;;;;;;;;;;;;16.97;59.38;100509.19;5033336;28;19932;-82
2022/04/05 11:50:41;;;;;;;;;;;;;;;16.08;60.86;100523.28;5034199;28;19921;-84
2022/04/05 11:53:19;;;;;;;;;;;;;;;16.72;60.26;100515.50;5034505;28;19995;-84
2022/04/05 11:56:02;;;;;;;;;;;;;;;16.02;62.15;100523.59;5034312;28;19968;-84
2022/04/05 11:58:30;;;;;;;;;;;;;;;15.99;62.45;100516.78;5035395;28;19917;-81
2022/04/05 12:00:57;;;;;;;;;;;;;;;15.73;63.14;100523.22;5033770;28;19924;-83
2022/04/05 12:03:22;;;;;;;;;;;;;;;16.12;62.68;100516.25;5034984;28;19952;-82
2022/04/05 12:05:48;;;;;;;;;;;;;;;16.34;62.19;100524.97;5035290;28;20284;-82
2022/04/05 12:08:14;;;;;;;;;;;;;;;16.29;62.26;100526.88;5034547;28;20015;-82
2022/04/05 12:10:40;;;;;;;;;;;;;;;16.08;63.04;100528.72;5049370;28;19923;-82
2022/04/05 12:13:06;;;;;;;;;;;;;;;16.19;62.94;100519.53;5054350;28;20377;-82
2022/04/05 12:15:33;;;;;;;;;;;;;;;16.20;62.36;100515.72;5054238;28;20000;-87
2022/04/05 12:18:17;;;;;;;;;;;;;;;17.16;59.27;100512.97;5054433;28;20334;-81
2022/04/05 12:20:52;;;;;;;;;;;;;;;16.37;61.95;100518.97;5051896;28;20446;-82
2022/04/05 12:23:19;;;;;;;;;;;;;;;16.86;61.08;100511.13;5051852;28;20007;-81
2022/04/05 12:26:02;;;;;;;;;;;;;;;16.19;62.13;100505.16;5053223;28;19921;-78
2022/04/05 12:28:28;;;;;;;;;;;;;;;17.09;59.04;100505.09;5076830;28;20304;-82
2022/04/05 12:31:01;;;;;;;;;;;;;;;16.12;61.95;100516.25;5051635;28;19947;-83
2022/04/05 12:33:27;;;;;;;;;;;;;;;16.02;62.38;100518.16;5077161;28;20284;-79